createdAt,value
2017-08-21T00:01:23.239Z,86.30
2017-08-21T00:03:52.416Z,86.30
2017-08-21T00:06:20.865Z,86.00
2017-08-21T00:08:49.315Z,86.30
2017-08-21T00:11:17.770Z,85.70
2017-08-21T00:13:46.205Z,86.00
2017-08-21T00:16:15.296Z,85.90
2017-08-21T00:18:43.588Z,85.90
2017-08-21T00:21:11.834Z,86.30
2017-08-21T00:23:40.251Z,85.30
2017-08-21T00:26:08.697Z,85.30
2017-08-21T00:28:37.893Z,86.40
2017-08-21T00:31:07.019Z,86.30
2017-08-21T00:33:36.200Z,86.20
2017-08-21T00:36:05.381Z,86.20
2017-08-21T00:38:34.276Z,86.20
2017-08-21T00:41:04.360Z,85.40
2017-08-21T00:43:32.853Z,86.00
2017-08-21T00:46:00.925Z,86.10
2017-08-21T00:48:29.425Z,85.90
2017-08-21T00:50:58.709Z,86.20
2017-08-21T00:53:27.244Z,85.90
2017-08-21T00:55:55.677Z,86.10
2017-08-21T00:58:25.866Z,86.70
2017-08-21T01:00:54.339Z,86.50
2017-08-21T01:03:22.883Z,87.10
2017-08-21T01:05:52.142Z,87.30
2017-08-21T01:08:21.393Z,87.60
2017-08-21T01:10:49.849Z,87.10
2017-08-21T01:13:19.064Z,87.40
2017-08-21T01:15:47.560Z,87.40
2017-08-21T01:18:16.042Z,87.60
2017-08-21T01:20:44.498Z,88.00
2017-08-21T01:23:12.991Z,88.10
2017-08-21T01:25:41.427Z,87.80
2017-08-21T01:28:11.480Z,88.10
2017-08-21T01:30:39.893Z,88.10
2017-08-21T01:33:08.867Z,88.40
2017-08-21T01:35:37.312Z,88.60
2017-08-21T01:38:06.560Z,88.20
2017-08-21T01:40:35.974Z,88.30
2017-08-21T01:43:04.397Z,88.70
2017-08-21T01:45:33.862Z,88.60
2017-08-21T01:48:02.820Z,89.00
2017-08-21T01:50:32.426Z,89.20
2017-08-21T01:53:00.666Z,89.80
2017-08-21T01:55:29.111Z,89.40
2017-08-21T01:57:57.544Z,89.50
2017-08-21T02:00:25.995Z,89.50
2017-08-21T02:02:55.235Z,89.30
2017-08-21T02:05:24.026Z,89.40
2017-08-21T02:07:52.529Z,89.50
2017-08-21T02:10:20.945Z,89.80
2017-08-21T02:12:50.145Z,90.10
2017-08-21T02:15:19.387Z,90.10
2017-08-21T02:17:51.065Z,90.10
2017-08-21T02:20:19.486Z,90.30
2017-08-21T02:22:49.841Z,90.40
2017-08-21T02:25:18.244Z,90.30
2017-08-21T02:27:46.668Z,90.00
2017-08-21T02:30:16.592Z,90.00
2017-08-21T02:32:46.840Z,89.80
2017-08-21T02:35:16.265Z,89.70
2017-08-21T02:37:45.510Z,89.50
2017-08-21T02:40:14.123Z,89.90
2017-08-21T02:42:42.686Z,90.00
2017-08-21T02:45:10.970Z,90.00
2017-08-21T02:47:39.588Z,90.10
2017-08-21T02:50:08.375Z,90.10
2017-08-21T02:52:36.842Z,90.00
2017-08-21T02:55:05.937Z,90.00
2017-08-21T02:57:34.424Z,90.00
2017-08-21T03:00:03.036Z,90.20
2017-08-21T03:02:32.276Z,90.00
2017-08-21T03:05:00.718Z,90.00
2017-08-21T03:07:29.141Z,90.00
2017-08-21T03:09:58.237Z,90.20
2017-08-21T03:12:27.596Z,90.30
2017-08-21T03:14:56.082Z,90.40
2017-08-21T03:17:25.286Z,90.40
2017-08-21T03:19:55.096Z,90.60
2017-08-21T03:22:23.536Z,90.60
2017-08-21T03:24:51.945Z,90.50
2017-08-21T03:27:20.941Z,90.70
2017-08-21T03:29:49.358Z,91.00
2017-08-21T03:32:17.791Z,90.90
2017-08-21T03:34:47.028Z,90.90
2017-08-21T03:37:15.450Z,90.90
2017-08-21T03:39:44.292Z,91.00
2017-08-21T03:42:13.580Z,91.00
2017-08-21T03:44:42.039Z,91.10
2017-08-21T03:47:11.235Z,90.80
2017-08-21T03:49:40.446Z,91.10
2017-08-21T03:52:08.918Z,91.10
2017-08-21T03:54:37.731Z,91.10
2017-08-21T03:57:07.367Z,91.10
2017-08-21T03:59:36.276Z,91.10
2017-08-21T04:02:07.651Z,91.00
2017-08-21T04:04:36.158Z,91.10
2017-08-21T04:07:05.382Z,91.10
2017-08-21T04:09:34.623Z,91.10
2017-08-21T04:12:03.058Z,91.20
2017-08-21T04:14:33.169Z,91.30
2017-08-21T04:17:02.073Z,91.40
2017-08-21T04:19:30.674Z,91.40
2017-08-21T04:22:00.653Z,91.50
2017-08-21T04:24:29.251Z,91.50
2017-08-21T04:26:58.171Z,91.70
2017-08-21T04:29:27.378Z,91.60
2017-08-21T04:31:57.458Z,91.50
2017-08-21T04:34:26.809Z,91.50
2017-08-21T04:36:55.257Z,91.60
2017-08-21T04:39:24.654Z,91.70
2017-08-21T04:41:54.951Z,92.10
2017-08-21T04:44:23.914Z,91.80
2017-08-21T04:46:53.377Z,91.70
2017-08-21T04:49:26.008Z,91.70
2017-08-21T04:51:53.794Z,91.70
2017-08-21T04:54:22.469Z,91.80
2017-08-21T04:56:54.008Z,91.80
2017-08-21T04:59:22.894Z,91.70
2017-08-21T05:01:51.337Z,91.80
2017-08-21T05:04:20.880Z,92.00
2017-08-21T05:06:49.320Z,92.00
2017-08-21T05:09:18.566Z,92.00
2017-08-21T05:11:47.945Z,92.00
2017-08-21T05:14:19.957Z,92.00
2017-08-21T05:16:50.520Z,92.10
2017-08-21T05:19:19.660Z,92.00
2017-08-21T05:21:50.228Z,92.10
2017-08-21T05:24:18.634Z,92.10
2017-08-21T05:26:48.964Z,92.20
2017-08-21T05:29:18.073Z,92.20
2017-08-21T05:31:48.294Z,92.10
2017-08-21T05:34:17.493Z,92.10
2017-08-21T05:36:45.621Z,92.10
2017-08-21T05:39:14.857Z,92.10
2017-08-21T05:41:43.977Z,92.10
2017-08-21T05:44:13.622Z,92.10
2017-08-21T05:46:42.035Z,92.20
2017-08-21T05:49:12.128Z,92.10
2017-08-21T05:51:42.184Z,92.10
2017-08-21T05:54:11.346Z,92.20
2017-08-21T05:56:39.793Z,92.20
2017-08-21T05:59:09.162Z,92.20
2017-08-21T06:01:38.013Z,92.00
2017-08-21T06:04:08.567Z,92.00
2017-08-21T06:06:37.716Z,92.00
2017-08-21T06:09:06.169Z,91.90
2017-08-21T06:11:34.604Z,91.70
2017-08-21T06:14:03.700Z,91.80
2017-08-21T06:16:32.614Z,91.80
2017-08-21T06:19:01.680Z,91.80
2017-08-21T06:21:30.163Z,91.80
2017-08-21T06:23:58.773Z,91.80
2017-08-21T06:26:27.329Z,91.80
2017-08-21T06:28:57.365Z,91.70
2017-08-21T06:31:26.673Z,91.80
2017-08-21T06:33:55.182Z,91.70
2017-08-21T06:36:24.345Z,91.20
2017-08-21T06:38:53.909Z,91.20
2017-08-21T06:41:27.841Z,91.10
2017-08-21T06:43:56.432Z,91.10
2017-08-21T06:46:24.881Z,91.20
2017-08-21T06:48:53.478Z,91.00
2017-08-21T06:51:22.501Z,91.10
2017-08-21T06:53:50.863Z,90.90
2017-08-21T06:56:19.453Z,90.70
2017-08-21T06:58:47.969Z,91.00
2017-08-21T07:01:16.537Z,90.60
2017-08-21T07:03:45.694Z,90.70
2017-08-21T07:06:14.151Z,90.80
2017-08-21T07:08:43.358Z,90.40
2017-08-21T07:11:11.821Z,90.40
2017-08-21T07:13:41.537Z,91.00
2017-08-21T07:16:11.288Z,90.20
2017-08-21T07:18:40.341Z,90.20
2017-08-21T07:21:11.501Z,90.60
2017-08-21T07:23:40.011Z,90.10
2017-08-21T07:26:10.243Z,89.40
2017-08-21T07:28:39.517Z,89.20
2017-08-21T07:31:07.965Z,89.80
2017-08-21T07:33:36.978Z,89.50
2017-08-21T07:36:05.478Z,88.80
2017-08-21T07:38:33.933Z,89.80
2017-08-21T07:41:05.454Z,87.70
2017-08-21T07:43:34.779Z,89.70
2017-08-21T07:46:03.687Z,89.70
2017-08-21T07:48:32.425Z,87.60
2017-08-21T07:51:02.301Z,87.70
2017-08-21T07:53:31.282Z,87.90
2017-08-21T07:56:00.168Z,86.80
2017-08-21T07:58:30.213Z,86.00
2017-08-21T08:00:59.669Z,85.50
2017-08-21T08:03:30.628Z,85.20
2017-08-21T08:05:59.712Z,85.20
2017-08-21T08:08:28.128Z,84.70
2017-08-21T08:10:57.387Z,81.80
2017-08-21T08:13:25.910Z,81.80
2017-08-21T08:15:55.155Z,81.30
2017-08-21T08:18:23.633Z,81.30
2017-08-21T08:20:52.792Z,76.50
2017-08-21T08:23:22.393Z,76.50
2017-08-21T08:25:50.848Z,76.60
2017-08-21T08:28:19.299Z,76.80
2017-08-21T08:30:48.212Z,73.80
2017-08-21T08:36:07.604Z,72.70
2017-08-21T08:38:36.024Z,72.10
2017-08-21T08:41:04.432Z,70.40
2017-08-21T08:43:32.868Z,69.70
2017-08-21T08:46:01.282Z,65.60
2017-08-21T08:48:29.766Z,66.40
2017-08-21T08:50:57.841Z,67.20
2017-08-21T08:53:26.365Z,64.10
2017-08-21T08:55:54.801Z,63.40
2017-08-21T08:58:23.252Z,61.10
2017-08-21T09:00:51.666Z,62.00
2017-08-21T09:03:20.853Z,62.30
2017-08-21T09:05:49.309Z,62.10
2017-08-21T09:08:18.501Z,61.60
2017-08-21T09:10:46.933Z,61.60
2017-08-21T09:13:15.370Z,59.60
2017-08-21T09:15:44.545Z,59.20
2017-08-21T09:18:12.792Z,59.20
2017-08-21T09:20:41.335Z,59.60
2017-08-21T09:23:09.769Z,56.80
2017-08-21T09:25:38.176Z,57.90
2017-08-21T09:28:07.389Z,55.50
2017-08-21T09:30:35.817Z,54.80
2017-08-21T09:33:04.280Z,54.70
2017-08-21T09:35:32.750Z,56.50
2017-08-21T09:38:01.178Z,55.10
2017-08-21T09:40:29.588Z,54.30
2017-08-21T09:42:58.159Z,54.00
2017-08-21T09:45:27.359Z,51.10
2017-08-21T09:47:55.773Z,51.00
2017-08-21T09:50:24.208Z,51.20
2017-08-21T09:52:53.422Z,51.60
2017-08-21T09:55:21.834Z,51.50
2017-08-21T09:58:31.496Z,50.90
2017-08-21T10:00:59.909Z,50.90
2017-08-21T10:03:28.339Z,50.70
2017-08-21T10:05:57.233Z,51.20
2017-08-21T10:08:25.653Z,50.60
2017-08-21T10:10:54.077Z,49.20
2017-08-21T10:13:22.524Z,50.60
2017-08-21T10:15:50.958Z,49.10
2017-08-21T10:18:19.857Z,49.50
2017-08-21T10:20:48.441Z,49.70
2017-08-21T10:23:17.247Z,50.10
2017-08-21T10:25:46.308Z,50.20
2017-08-21T10:28:15.172Z,50.60
2017-08-21T10:30:44.360Z,46.90
2017-08-21T10:33:12.786Z,46.90
2017-08-21T10:35:41.217Z,49.10
2017-08-21T10:38:09.641Z,50.50
2017-08-21T10:40:38.049Z,50.10
2017-08-21T10:43:06.493Z,49.90
2017-08-21T10:45:34.913Z,51.00
2017-08-21T10:48:03.382Z,51.30
2017-08-21T10:50:31.996Z,50.40
2017-08-21T10:53:00.412Z,49.70
2017-08-21T10:55:28.825Z,49.30
2017-08-21T10:57:57.433Z,50.40
2017-08-21T11:00:25.829Z,51.40
2017-08-21T11:02:54.248Z,53.20
2017-08-21T11:05:22.688Z,52.30
2017-08-21T11:07:51.104Z,51.70
2017-08-21T11:10:19.514Z,51.50
2017-08-21T11:12:47.969Z,52.80
2017-08-21T11:15:16.385Z,52.90
2017-08-21T11:17:44.812Z,54.40
2017-08-21T11:20:13.644Z,54.20
2017-08-21T11:22:42.139Z,54.30
2017-08-21T11:25:10.560Z,54.50
2017-08-21T11:27:38.995Z,53.10
2017-08-21T11:30:07.429Z,51.10
2017-08-21T11:32:35.849Z,52.40
2017-08-21T11:35:04.327Z,52.90
2017-08-21T11:37:32.744Z,54.10
2017-08-21T11:40:01.144Z,54.00
2017-08-21T11:42:29.724Z,51.50
2017-08-21T11:44:57.984Z,51.50
2017-08-21T11:47:26.410Z,49.40
2017-08-21T11:49:55.618Z,52.30
2017-08-21T11:52:24.065Z,52.10
2017-08-21T11:54:52.469Z,51.20
2017-08-21T11:57:20.908Z,51.00
2017-08-21T11:59:49.320Z,50.20
2017-08-21T12:02:17.738Z,50.20
2017-08-21T12:04:46.296Z,50.20
2017-08-21T12:07:14.774Z,52.90
2017-08-21T12:09:43.949Z,53.50
2017-08-21T12:12:12.385Z,53.40
2017-08-21T12:14:40.799Z,51.70
2017-08-21T12:17:09.218Z,47.00
2017-08-21T12:19:37.898Z,50.90
2017-08-21T12:22:06.352Z,49.50
2017-08-21T12:24:34.794Z,49.30
2017-08-21T12:27:03.437Z,47.80
2017-08-21T12:29:31.845Z,48.50
2017-08-21T12:32:00.278Z,47.20
2017-08-21T12:34:29.000Z,48.20
2017-08-21T12:36:57.453Z,49.80
2017-08-21T12:39:25.906Z,48.20
2017-08-21T12:41:54.715Z,48.70
2017-08-21T12:44:23.145Z,49.80
2017-08-21T12:46:51.553Z,52.20
2017-08-21T12:49:20.040Z,49.70
2017-08-21T12:51:48.537Z,50.00
2017-08-21T12:54:16.962Z,49.60
2017-08-21T12:56:45.409Z,50.50
2017-08-21T12:59:13.836Z,50.20
2017-08-21T13:01:42.289Z,48.00
2017-08-21T13:04:10.771Z,47.40
2017-08-21T13:06:39.209Z,48.20
2017-08-21T13:09:08.431Z,49.90
2017-08-21T13:11:37.101Z,49.90
2017-08-21T13:14:05.543Z,50.10
2017-08-21T13:16:33.970Z,50.90
2017-08-21T13:19:02.672Z,50.80
2017-08-21T13:21:31.143Z,50.70
2017-08-21T13:23:59.557Z,50.80
2017-08-21T13:26:28.019Z,51.90
2017-08-21T13:28:56.428Z,51.10
2017-08-21T13:31:24.930Z,51.20
2017-08-21T13:33:54.171Z,50.60
2017-08-21T13:36:22.589Z,50.50
2017-08-21T13:38:50.997Z,50.80
2017-08-21T13:41:19.497Z,50.60
2017-08-21T13:43:47.929Z,52.10
2017-08-21T13:46:16.399Z,51.20
2017-08-21T13:48:44.816Z,50.40
2017-08-21T13:51:12.551Z,49.50
2017-08-21T13:53:41.051Z,51.00
2017-08-21T13:56:10.564Z,50.90
2017-08-21T13:58:38.975Z,50.80
2017-08-21T14:01:07.407Z,51.20
2017-08-21T14:03:36.004Z,50.80
2017-08-21T14:06:04.441Z,51.40
2017-08-21T14:08:32.971Z,50.00
2017-08-21T14:11:01.545Z,50.80
2017-08-21T14:13:29.971Z,50.90
2017-08-21T14:15:58.389Z,50.90
2017-08-21T14:18:27.092Z,51.20
2017-08-21T14:20:55.508Z,51.00
2017-08-21T14:23:23.921Z,52.00
2017-08-21T14:25:52.742Z,50.60
2017-08-21T14:28:21.960Z,50.20
2017-08-21T14:30:50.379Z,49.80
2017-08-21T14:33:19.109Z,49.90
2017-08-21T14:35:47.533Z,50.70
2017-08-21T14:38:15.966Z,50.20
2017-08-21T14:40:44.405Z,50.30
2017-08-21T14:43:12.911Z,51.90
2017-08-21T14:45:41.334Z,50.50
2017-08-21T14:48:09.970Z,52.10
2017-08-21T14:50:38.381Z,51.70
2017-08-21T14:53:06.801Z,51.50
2017-08-21T14:55:35.237Z,51.00
2017-08-21T14:58:03.672Z,50.60
2017-08-21T15:00:32.089Z,52.40
2017-08-21T15:03:00.877Z,52.50
2017-08-21T15:05:29.409Z,53.20
2017-08-21T15:07:57.845Z,50.40
2017-08-21T15:10:26.611Z,52.70
2017-08-21T15:12:55.024Z,53.20
2017-08-21T15:15:23.461Z,51.60
2017-08-21T15:17:52.140Z,50.20
2017-08-21T15:20:20.586Z,51.10
2017-08-21T15:22:49.133Z,49.20
2017-08-21T15:25:17.511Z,49.30
2017-08-21T15:27:46.137Z,48.50
2017-08-21T15:30:14.553Z,49.10
2017-08-21T15:32:43.125Z,49.50
2017-08-21T15:35:11.588Z,50.90
2017-08-21T15:37:40.065Z,51.30
2017-08-21T15:40:08.524Z,48.10
2017-08-21T15:42:36.945Z,47.80
2017-08-21T15:45:06.122Z,49.90
2017-08-21T15:47:34.773Z,49.80
2017-08-21T15:50:03.226Z,49.10
2017-08-21T15:52:31.878Z,48.80
2017-08-21T15:55:00.484Z,50.10
2017-08-21T15:57:28.964Z,50.80
2017-08-21T15:59:57.445Z,52.20
2017-08-21T16:02:26.244Z,53.30
2017-08-21T16:04:54.733Z,51.90
2017-08-21T16:07:23.864Z,52.20
2017-08-21T16:09:52.503Z,50.80
2017-08-21T16:12:20.936Z,52.50
2017-08-21T16:14:49.464Z,53.30
2017-08-21T16:17:17.898Z,54.30
2017-08-21T16:19:46.335Z,53.20
2017-08-21T16:22:14.779Z,53.40
2017-08-21T16:24:43.391Z,53.40
2017-08-21T16:27:11.937Z,53.40
2017-08-21T16:29:40.852Z,53.60
2017-08-21T16:32:09.544Z,51.30
2017-08-21T16:34:38.027Z,51.00
2017-08-21T16:37:06.541Z,53.10
2017-08-21T16:39:35.500Z,54.00
2017-08-21T16:42:03.811Z,54.50
2017-08-21T16:44:32.246Z,55.20
2017-08-21T16:47:01.109Z,55.70
2017-08-21T16:49:29.540Z,55.10
2017-08-21T16:51:57.967Z,56.00
2017-08-21T16:54:26.670Z,54.70
2017-08-21T16:56:55.084Z,55.30
2017-08-21T16:59:23.497Z,55.40
2017-08-21T17:01:52.081Z,55.30
2017-08-21T17:04:20.496Z,55.10
2017-08-21T17:06:48.932Z,54.10
2017-08-21T17:09:17.370Z,54.40
2017-08-21T17:11:45.844Z,54.60
2017-08-21T17:14:14.253Z,55.00
2017-08-21T17:16:42.726Z,54.70
2017-08-21T17:19:10.618Z,53.90
2017-08-21T17:21:39.054Z,53.40
2017-08-21T17:24:07.503Z,53.20
2017-08-21T17:26:35.816Z,52.80
2017-08-21T17:29:04.234Z,53.30
2017-08-21T17:31:32.977Z,52.50
2017-08-21T17:34:01.523Z,52.80
2017-08-21T17:36:29.947Z,53.80
2017-08-21T17:38:58.476Z,53.70
2017-08-21T17:41:26.894Z,54.30
2017-08-21T17:43:55.319Z,54.20
2017-08-21T17:46:24.184Z,54.50
2017-08-21T17:48:52.997Z,54.20
2017-08-21T17:51:22.187Z,54.00
2017-08-21T17:53:50.751Z,53.50
2017-08-21T17:56:19.317Z,53.80
2017-08-21T17:58:47.741Z,53.90
2017-08-21T18:01:16.198Z,53.90
2017-08-21T18:03:44.634Z,54.10
2017-08-21T18:06:13.078Z,53.70
2017-08-21T18:08:42.260Z,53.80
2017-08-21T18:11:10.679Z,53.80
2017-08-21T18:13:38.925Z,54.10
2017-08-21T18:16:08.168Z,54.00
2017-08-21T18:18:37.024Z,54.10
2017-08-21T18:21:05.432Z,53.90
2017-08-21T18:23:33.914Z,54.80
2017-08-21T18:26:02.370Z,54.50
2017-08-21T18:28:31.691Z,54.90
2017-08-21T18:31:00.154Z,54.90
2017-08-21T18:33:28.581Z,55.00
2017-08-21T18:35:57.003Z,55.20
2017-08-21T18:38:26.737Z,55.50
2017-08-21T18:40:55.207Z,55.50
2017-08-21T18:43:23.706Z,55.90
2017-08-21T18:45:52.118Z,55.90
2017-08-21T18:48:21.259Z,55.70
2017-08-21T18:50:49.690Z,55.80
2017-08-21T18:53:18.130Z,56.20
2017-08-21T18:55:48.029Z,59.80
2017-08-21T18:58:16.452Z,59.80
2017-08-21T19:00:44.886Z,59.20
2017-08-21T19:03:13.345Z,59.10
2017-08-21T19:05:41.770Z,59.70
2017-08-21T19:08:10.221Z,58.90
2017-08-21T19:10:38.665Z,59.60
2017-08-21T19:13:07.082Z,59.10
2017-08-21T19:15:35.628Z,59.70
2017-08-21T19:18:04.142Z,58.90
2017-08-21T19:20:32.816Z,59.30
2017-08-21T19:23:02.020Z,60.40
2017-08-21T19:25:30.456Z,60.40
2017-08-21T19:27:58.887Z,62.90
2017-08-21T19:30:27.308Z,62.90
2017-08-21T19:32:55.720Z,63.00
2017-08-21T19:35:24.202Z,63.30
2017-08-21T19:37:52.641Z,62.80
2017-08-21T19:40:21.062Z,62.60
2017-08-21T19:42:49.489Z,63.30
2017-08-21T19:45:17.937Z,63.20
2017-08-21T19:47:46.360Z,64.60
2017-08-21T19:50:14.998Z,64.40
2017-08-21T19:52:43.436Z,65.00
2017-08-21T19:55:11.983Z,65.10
2017-08-21T19:57:40.648Z,65.90
2017-08-21T20:00:09.217Z,66.10
2017-08-21T20:02:38.437Z,67.10
2017-08-21T20:05:07.118Z,67.00
2017-08-21T20:07:35.599Z,66.00
2017-08-21T20:10:04.010Z,66.00
2017-08-21T20:12:32.485Z,65.30
2017-08-21T20:15:00.925Z,64.40
2017-08-21T20:17:29.334Z,64.60
2017-08-21T20:19:58.419Z,64.70
2017-08-21T20:22:26.886Z,64.40
2017-08-21T20:24:55.346Z,63.40
2017-08-21T20:27:23.944Z,63.50
2017-08-21T20:29:52.471Z,64.30
2017-08-21T20:32:20.886Z,65.50
2017-08-21T20:34:49.473Z,67.10
2017-08-21T20:37:17.905Z,67.70
2017-08-21T20:39:46.317Z,68.40
2017-08-21T20:42:14.816Z,68.60
2017-08-21T20:44:43.258Z,68.60
2017-08-21T20:47:11.734Z,69.30
2017-08-21T20:49:40.373Z,70.10
2017-08-21T20:52:08.813Z,70.90
2017-08-21T20:54:37.253Z,70.40
2017-08-21T20:57:05.923Z,70.90
2017-08-21T20:59:34.372Z,71.50
2017-08-21T21:02:02.789Z,71.20
2017-08-21T21:04:31.240Z,72.40
2017-08-21T21:06:59.666Z,72.90
2017-08-21T21:09:28.082Z,72.80
2017-08-21T21:11:56.565Z,72.80
2017-08-21T21:14:25.011Z,73.50
2017-08-21T21:16:53.441Z,74.50
2017-08-21T21:19:22.130Z,75.00
2017-08-21T21:21:50.548Z,75.50
2017-08-21T21:24:18.985Z,75.60
2017-08-21T21:26:47.573Z,75.20
2017-08-21T21:29:15.997Z,76.50
2017-08-21T21:31:44.453Z,75.90
2017-08-21T21:34:13.102Z,76.20
2017-08-21T21:36:41.537Z,76.50
2017-08-21T21:39:09.984Z,76.80
2017-08-21T21:41:38.779Z,76.90
2017-08-21T21:44:07.197Z,77.40
2017-08-21T21:46:35.610Z,77.40
2017-08-21T21:49:04.410Z,78.10
2017-08-21T21:51:32.844Z,78.00
2017-08-21T21:54:01.262Z,78.50
2017-08-21T21:56:29.759Z,78.40
2017-08-21T21:58:58.235Z,78.50
2017-08-21T22:01:26.674Z,78.30
2017-08-21T22:03:55.281Z,78.80
2017-08-21T22:06:23.711Z,79.20
2017-08-21T22:08:52.121Z,78.50
2017-08-21T22:11:21.017Z,78.80
2017-08-21T22:13:49.461Z,79.50
2017-08-21T22:16:17.900Z,78.70
2017-08-21T22:18:46.659Z,79.00
2017-08-21T22:21:15.873Z,79.90
2017-08-21T22:23:44.312Z,79.90
2017-08-21T22:26:12.933Z,79.50
2017-08-21T22:28:41.357Z,79.30
2017-08-21T22:31:09.774Z,79.90
2017-08-21T22:33:38.600Z,80.10
2017-08-21T22:36:07.014Z,80.90
2017-08-21T22:38:35.465Z,81.20
2017-08-21T22:41:04.137Z,81.10
2017-08-21T22:43:32.628Z,81.10
2017-08-21T22:46:01.034Z,81.00
2017-08-21T22:48:29.672Z,81.50
2017-08-21T22:50:58.094Z,81.70
2017-08-21T22:53:26.519Z,81.60
2017-08-21T22:55:54.941Z,81.40
2017-08-21T22:58:23.369Z,81.50
2017-08-21T23:00:51.829Z,82.00
2017-08-21T23:03:20.428Z,82.10
2017-08-21T23:05:48.848Z,82.20
2017-08-21T23:08:17.272Z,81.50
2017-08-21T23:10:45.895Z,81.70
2017-08-21T23:13:14.373Z,82.00
2017-08-21T23:15:42.781Z,82.10
2017-08-21T23:18:11.453Z,82.20
2017-08-21T23:20:40.813Z,82.90
2017-08-21T23:23:09.287Z,82.60
2017-08-21T23:25:37.892Z,83.10
2017-08-21T23:28:06.333Z,83.40
2017-08-21T23:30:34.756Z,83.50
2017-08-21T23:33:03.317Z,83.90
2017-08-21T23:35:31.761Z,83.70
2017-08-21T23:38:00.192Z,83.80
2017-08-21T23:40:28.879Z,84.00
2017-08-21T23:42:57.292Z,84.60
2017-08-21T23:45:25.726Z,83.90
2017-08-21T23:47:54.509Z,84.20
2017-08-21T23:50:23.685Z,85.30
2017-08-21T23:52:52.113Z,85.30
2017-08-21T23:55:20.880Z,85.70
2017-08-21T23:57:49.296Z,85.50
